Impacts METAR Board INFO
IDs:

KATL - Atlanta/Hartsfield-J, GA, US

Updated at: 0956 UTC 17 Dec 2017
Potential Impact None Slight Moderate High
Time16/21Z 16/22Z 16/23Z 17/00Z 17/01Z 17/02Z 17/03Z 17/04Z 17/05Z 17/06Z 17/07Z 17/08Z 17/09Z
VIS10 10 10 10 10 10 10 10 10 10 10 10 10
CIG250 250 -- -- -- -- -- 200 -- -- -- 250 250
CoverBKNBKNSCTSCTSCTSCTSCTBKNSCTSCTFEWBKNBKN
FltCatVFRVFRVFRVFRVFRVFRVFRVFRVFRVFRVFRVFRVFR
WX--------------------------
WDir03603103000000000080
WSpd0 6 4 3 0 0 0 0 0 0 0 0 4
WGst-- -- -- -- -- -- -- -- -- -- -- -- --
Raw hourly METARs
KATL 162052Z 00000KT 10SM BKN250 11/M03 A3023 RMK AO2 SLP244 T01111033 56011
KATL 162152Z 36006KT 10SM BKN250 11/M03 A3023 RMK AO2 SLP242 T01061028
KATL 162252Z 31004KT 10SM FEW150 SCT200 SCT250 09/M03 A3025 RMK AO2 SLP249 T00891028
KATL 162352Z 30003KT 10SM FEW150 SCT200 SCT250 08/M03 A3026 RMK AO2 SLP254 T00781028 10117 20078 53007
KATL 170052Z 00000KT 10SM FEW200 SCT250 06/M01 A3026 RMK AO2 SLP255 T00611011
KATL 170152Z 00000KT 10SM FEW200 SCT250 04/M01 A3026 RMK AO2 SLP255 T00441011
KATL 170252Z 00000KT 10SM SCT200 05/M01 A3028 RMK AO2 SLP260 T00501011 53007
KATL 170352Z 00000KT 10SM BKN200 04/M01 A3028 RMK AO2 SLP259 T00391011
KATL 170452Z 00000KT 10SM SCT200 05/M02 A3028 RMK AO2 SLP257 T00501017 401171028
KATL 170552Z 00000KT 10SM SCT200 SCT250 03/M01 A3026 RMK AO2 SLP253 T00331011 10078 20028 58005
KATL 170652Z 00000KT 10SM FEW200 FEW250 03/M02 A3025 RMK AO2 SLP248 T00331017
KATL 170752Z 00000KT 10SM SCT200 BKN250 03/M01 A3024 RMK AO2 SLP243 T00331011
KATL 170852Z 08004KT 10SM FEW200 BKN250 03/M01 A3022 RMK AO2 PRESFR SLP239 T00331011 58013